sensor_id;sensor_type;location;lat;lon;timestamp;pressure;altitude;pressure_sealevel;temperature;humidity
24666;BME280;29726;53.532;-1.478;2023-04-10T00:00:36;100147.97;;;17.17;91.68
24666;BME280;29726;53.532;-1.478;2023-04-10T00:03:22;100153.34;;;17.15;91.79
24666;BME280;29726;53.532;-1.478;2023-04-10T00:06:06;100137.47;;;17.12;91.84
24666;BME280;29726;53.532;-1.478;2023-04-10T00:08:50;100124.97;;;17.07;91.82
24666;BME280;29726;53.532;-1.478;2023-04-10T00:11:34;100116.22;;;17.05;92.23
24666;BME280;29726;53.532;-1.478;2023-04-10T00:14:18;100130.84;;;17.09;92.21
24666;BME280;29726;53.532;-1.478;2023-04-10T00:17:05;100120.84;;;17.08;92.29
24666;BME280;29726;53.532;-1.478;2023-04-10T00:19:49;100104.94;;;17.05;92.60
24666;BME280;29726;53.532;-1.478;2023-04-10T00:22:33;100095.72;;;17.05;92.43
24666;BME280;29726;53.532;-1.478;2023-04-10T00:25:18;100102.41;;;17.02;92.75
24666;BME280;29726;53.532;-1.478;2023-04-10T00:28:02;100094.72;;;17.02;92.79
24666;BME280;29726;53.532;-1.478;2023-04-10T00:30:46;100071.41;;;16.96;93.11
24666;BME280;29726;53.532;-1.478;2023-04-10T00:33:30;100068.34;;;16.94;93.09
24666;BME280;29726;53.532;-1.478;2023-04-10T00:36:14;100076.56;;;16.98;93.39
24666;BME280;29726;53.532;-1.478;2023-04-10T00:38:58;100080.66;;;16.97;93.57
24666;BME280;29726;53.532;-1.478;2023-04-10T00:41:42;100080.94;;;16.93;93.80
24666;BME280;29726;53.532;-1.478;2023-04-10T00:44:26;100061.97;;;16.94;94.03
24666;BME280;29726;53.532;-1.478;2023-04-10T00:47:11;100054.03;;;16.87;94.13
24666;BME280;29726;53.532;-1.478;2023-04-10T00:49:56;100054.53;;;16.91;94.20
24666;BME280;29726;53.532;-1.478;2023-04-10T00:52:40;100055.81;;;16.90;94.23
24666;BME280;29726;53.532;-1.478;2023-04-10T00:55:24;100035.09;;;16.87;94.64
24666;BME280;29726;53.532;-1.478;2023-04-10T00:58:09;100031.25;;;16.85;94.89
24666;BME280;29726;53.532;-1.478;2023-04-10T01:00:57;100011.03;;;16.81;94.73
24666;BME280;29726;53.532;-1.478;2023-04-10T01:03:41;100014.09;;;16.83;95.28
24666;BME280;29726;53.532;-1.478;2023-04-10T01:10:01;100007.97;;;16.79;96.12
24666;BME280;29726;53.532;-1.478;2023-04-10T01:16:15;99989.31;;;16.71;96.87
24666;BME280;29726;53.532;-1.478;2023-04-10T01:19:17;99978.31;;;16.67;97.26
24666;BME280;29726;53.532;-1.478;2023-04-10T01:22:07;99970.88;;;16.70;97.05
24666;BME280;29726;53.532;-1.478;2023-04-10T01:25:25;99965.47;;;16.72;97.52
24666;BME280;29726;53.532;-1.478;2023-04-10T01:31:05;99972.41;;;16.65;97.75
24666;BME280;29726;53.532;-1.478;2023-04-10T01:33:54;99957.56;;;16.65;98.26
24666;BME280;29726;53.532;-1.478;2023-04-10T01:37:19;99948.09;;;16.62;98.65
24666;BME280;29726;53.532;-1.478;2023-04-10T01:40:08;99946.34;;;16.59;98.68
24666;BME280;29726;53.532;-1.478;2023-04-10T01:42:55;99930.25;;;16.49;99.10
24666;BME280;29726;53.532;-1.478;2023-04-10T01:45:39;99910.28;;;16.47;99.19
24666;BME280;29726;53.532;-1.478;2023-04-10T01:48:26;99914.88;;;16.50;99.42
24666;BME280;29726;53.532;-1.478;2023-04-10T01:51:12;99900.31;;;16.46;99.55
24666;BME280;29726;53.532;-1.478;2023-04-10T01:53:59;99920.28;;;16.48;99.38
24666;BME280;29726;53.532;-1.478;2023-04-10T01:56:44;99919.25;;;16.45;99.44
24666;BME280;29726;53.532;-1.478;2023-04-10T01:59:28;99907.00;;;16.43;99.54
24666;BME280;29726;53.532;-1.478;2023-04-10T02:02:12;99895.25;;;16.33;99.61
24666;BME280;29726;53.532;-1.478;2023-04-10T02:04:56;99902.16;;;16.38;99.74
24666;BME280;29726;53.532;-1.478;2023-04-10T02:10:33;99892.94;;;16.37;100.00
24666;BME280;29726;53.532;-1.478;2023-04-10T02:13:21;99909.59;;;16.35;99.43
24666;BME280;29726;53.532;-1.478;2023-04-10T02:16:07;99885.28;;;16.27;99.43
24666;BME280;29726;53.532;-1.478;2023-04-10T02:18:52;99888.34;;;16.29;99.70
24666;BME280;29726;53.532;-1.478;2023-04-10T02:21:37;99895.50;;;16.30;100.00
24666;BME280;29726;53.532;-1.478;2023-04-10T02:24:23;99886.81;;;16.28;100.00
24666;BME280;29726;53.532;-1.478;2023-04-10T02:27:07;99866.34;;;16.27;100.00
24666;BME280;29726;53.532;-1.478;2023-04-10T02:29:51;99857.69;;;16.20;100.00
24666;BME280;29726;53.532;-1.478;2023-04-10T02:32:35;99852.81;;;16.20;100.00
24666;BME280;29726;53.532;-1.478;2023-04-10T02:35:19;99838.47;;;16.18;100.00
24666;BME280;29726;53.532;-1.478;2023-04-10T02:38:03;99830.59;;;16.11;100.00
24666;BME280;29726;53.532;-1.478;2023-04-10T02:40:47;99824.94;;;16.17;100.00
24666;BME280;29726;53.532;-1.478;2023-04-10T02:43:32;99807.56;;;16.13;100.00
24666;BME280;29726;53.532;-1.478;2023-04-10T02:46:16;99794.22;;;16.13;100.00
24666;BME280;29726;53.532;-1.478;2023-04-10T02:49:00;99767.50;;;15.90;100.00
24666;BME280;29726;53.532;-1.478;2023-04-10T02:51:44;99786.34;;;16.06;100.00
24666;BME280;29726;53.532;-1.478;2023-04-10T02:54:28;99799.63;;;16.11;100.00
24666;BME280;29726;53.532;-1.478;2023-04-10T02:57:12;99739.16;;;15.83;100.00
24666;BME280;29726;53.532;-1.478;2023-04-10T02:59:56;99761.06;;;16.01;100.00
24666;BME280;29726;53.532;-1.478;2023-04-10T03:02:40;99769.97;;;16.05;100.00
24666;BME280;29726;53.532;-1.478;2023-04-10T03:05:25;99765.13;;;16.05;100.00
24666;BME280;29726;53.532;-1.478;2023-04-10T03:08:09;99754.16;;;15.96;100.00
24666;BME280;29726;53.532;-1.478;2023-04-10T03:10:53;99746.00;;;15.93;100.00
24666;BME280;29726;53.532;-1.478;2023-04-10T03:13:38;99752.13;;;15.97;100.00
24666;BME280;29726;53.532;-1.478;2023-04-10T03:16:22;99748.06;;;15.92;100.00
24666;BME280;29726;53.532;-1.478;2023-04-10T03:19:05;99742.16;;;15.96;100.00
24666;BME280;29726;53.532;-1.478;2023-04-10T03:21:49;99749.06;;;15.95;100.00
24666;BME280;29726;53.532;-1.478;2023-04-10T03:24:33;99708.56;;;15.68;100.00
24666;BME280;29726;53.532;-1.478;2023-04-10T03:27:17;99730.94;;;15.85;100.00
24666;BME280;29726;53.532;-1.478;2023-04-10T03:30:02;99724.59;;;15.79;100.00
24666;BME280;29726;53.532;-1.478;2023-04-10T03:32:46;99730.50;;;15.75;100.00
24666;BME280;29726;53.532;-1.478;2023-04-10T03:35:30;99739.13;;;15.88;100.00
24666;BME280;29726;53.532;-1.478;2023-04-10T03:38:14;99737.59;;;15.87;100.00
24666;BME280;29726;53.532;-1.478;2023-04-10T03:40:58;99735.28;;;15.86;100.00
24666;BME280;29726;53.532;-1.478;2023-04-10T03:43:42;99726.13;;;15.80;100.00
24666;BME280;29726;53.532;-1.478;2023-04-10T03:46:26;99736.59;;;15.85;100.00
24666;BME280;29726;53.532;-1.478;2023-04-10T03:49:10;99731.00;;;15.79;100.00
24666;BME280;29726;53.532;-1.478;2023-04-10T03:51:53;99731.00;;;15.79;100.00
24666;BME280;29726;53.532;-1.478;2023-04-10T03:54:37;99724.38;;;15.77;100.00
24666;BME280;29726;53.532;-1.478;2023-04-10T03:57:21;99720.53;;;15.74;100.00
24666;BME280;29726;53.532;-1.478;2023-04-10T04:00:06;99714.41;;;15.76;100.00
24666;BME280;29726;53.532;-1.478;2023-04-10T04:02:51;99713.84;;;15.77;100.00
24666;BME280;29726;53.532;-1.478;2023-04-10T04:05:35;99712.59;;;15.78;100.00
24666;BME280;29726;53.532;-1.478;2023-04-10T04:08:19;99707.47;;;15.77;100.00
24666;BME280;29726;53.532;-1.478;2023-04-10T04:11:03;99698.03;;;15.74;100.00
24666;BME280;29726;53.532;-1.478;2023-04-10T04:13:48;99701.63;;;15.75;100.00
24666;BME280;29726;53.532;-1.478;2023-04-10T04:16:32;99703.66;;;15.74;100.00
24666;BME280;29726;53.532;-1.478;2023-04-10T04:19:16;99683.22;;;15.68;100.00
24666;BME280;29726;53.532;-1.478;2023-04-10T04:22:00;99703.66;;;15.74;100.00
24666;BME280;29726;53.532;-1.478;2023-04-10T04:24:44;99688.88;;;15.68;100.00
24666;BME280;29726;53.532;-1.478;2023-04-10T04:27:28;99649.34;;;15.50;100.00
24666;BME280;29726;53.532;-1.478;2023-04-10T04:30:12;99672.53;;;15.67;100.00
24666;BME280;29726;53.532;-1.478;2023-04-10T04:32:56;99671.75;;;15.66;100.00
24666;BME280;29726;53.532;-1.478;2023-04-10T04:35:40;99668.41;;;15.68;100.00
24666;BME280;29726;53.532;-1.478;2023-04-10T04:38:24;99670.44;;;15.67;100.00
24666;BME280;29726;53.532;-1.478;2023-04-10T04:41:08;99678.66;;;15.65;100.00
24666;BME280;29726;53.532;-1.478;2023-04-10T04:43:52;99675.34;;;15.67;100.00
24666;BME280;29726;53.532;-1.478;2023-04-10T04:46:38;99669.44;;;15.65;100.00
24666;BME280;29726;53.532;-1.478;2023-04-10T04:49:22;99629.97;;;15.41;100.00
24666;BME280;29726;53.532;-1.478;2023-04-10T04:52:06;99654.63;;;15.64;100.00
24666;BME280;29726;53.532;-1.478;2023-04-10T04:54:52;99659.97;;;15.68;100.00
24666;BME280;29726;53.532;-1.478;2023-04-10T04:57:36;99652.81;;;15.67;100.00
24666;BME280;29726;53.532;-1.478;2023-04-10T05:00:20;99647.44;;;15.69;100.00
24666;BME280;29726;53.532;-1.478;2023-04-10T05:03:04;99640.00;;;15.66;100.00
24666;BME280;29726;53.532;-1.478;2023-04-10T05:05:49;99655.09;;;15.68;100.00
24666;BME280;29726;53.532;-1.478;2023-04-10T05:08:33;99637.50;;;15.62;100.00
24666;BME280;29726;53.532;-1.478;2023-04-10T05:11:17;99649.22;;;15.66;100.00
24666;BME280;29726;53.532;-1.478;2023-04-10T05:14:01;99642.41;;;15.56;100.00
24666;BME280;29726;53.532;-1.478;2023-04-10T05:16:45;99656.19;;;15.60;100.00
24666;BME280;29726;53.532;-1.478;2023-04-10T05:19:29;99649.25;;;15.61;100.00
24666;BME280;29726;53.532;-1.478;2023-04-10T05:22:13;99650.53;;;15.65;100.00
24666;BME280;29726;53.532;-1.478;2023-04-10T05:24:58;99633.66;;;15.60;100.00
24666;BME280;29726;53.532;-1.478;2023-04-10T05:27:42;99636.97;;;15.64;100.00
24666;BME280;29726;53.532;-1.478;2023-04-10T05:30:26;99640.00;;;15.66;100.00
24666;BME280;29726;53.532;-1.478;2023-04-10T05:33:10;99628.81;;;15.60;100.00
24666;BME280;29726;53.532;-1.478;2023-04-10T05:35:54;99620.38;;;15.60;100.00
24666;BME280;29726;53.532;-1.478;2023-04-10T05:38:39;99616.75;;;15.65;100.00
24666;BME280;29726;53.532;-1.478;2023-04-10T05:41:23;99621.59;;;15.65;100.00
24666;BME280;29726;53.532;-1.478;2023-04-10T05:44:07;99633.63;;;15.65;100.00
24666;BME280;29726;53.532;-1.478;2023-04-10T05:46:51;99632.84;;;15.65;100.00
24666;BME280;29726;53.532;-1.478;2023-04-10T05:49:34;99615.81;;;15.57;100.00
24666;BME280;29726;53.532;-1.478;2023-04-10T05:52:19;99607.84;;;15.61;100.00
24666;BME280;29726;53.532;-1.478;2023-04-10T05:55:03;99611.41;;;15.62;100.00
24666;BME280;29726;53.532;-1.478;2023-04-10T05:57:47;99616.75;;;15.65;100.00
24666;BME280;29726;53.532;-1.478;2023-04-10T06:00:33;99608.06;;;15.63;100.00
24666;BME280;29726;53.532;-1.478;2023-04-10T06:03:18;99615.00;;;15.62;100.00
24666;BME280;29726;53.532;-1.478;2023-04-10T06:06:03;99605.84;;;15.56;100.00
24666;BME280;29726;53.532;-1.478;2023-04-10T06:08:47;99602.25;;;15.56;100.00
24666;BME280;29726;53.532;-1.478;2023-04-10T06:11:31;99602.97;;;15.62;100.00
24666;BME280;29726;53.532;-1.478;2023-04-10T06:14:16;99603.75;;;15.62;100.00
24666;BME280;29726;53.532;-1.478;2023-04-10T06:17:00;99579.94;;;15.63;100.00
24666;BME280;29726;53.532;-1.478;2023-04-10T06:19:45;99560.53;;;15.60;100.00
24666;BME280;29726;53.532;-1.478;2023-04-10T06:22:29;99564.34;;;15.62;100.00
24666;BME280;29726;53.532;-1.478;2023-04-10T06:25:13;99573.53;;;15.63;100.00
24666;BME280;29726;53.532;-1.478;2023-04-10T06:27:58;99555.19;;;15.56;100.00
24666;BME280;29726;53.532;-1.478;2023-04-10T06:30:42;99572.78;;;15.62;100.00
24666;BME280;29726;53.532;-1.478;2023-04-10T06:33:26;99567.16;;;15.62;100.00
24666;BME280;29726;53.532;-1.478;2023-04-10T06:36:09;99554.16;;;15.59;100.00
24666;BME280;29726;53.532;-1.478;2023-04-10T06:38:54;99554.63;;;15.63;100.00
24666;BME280;29726;53.532;-1.478;2023-04-10T06:41:37;99542.34;;;15.61;100.00
24666;BME280;29726;53.532;-1.478;2023-04-10T06:44:21;99542.06;;;15.64;100.00
24666;BME280;29726;53.532;-1.478;2023-04-10T06:47:05;99545.63;;;15.65;100.00
24666;BME280;29726;53.532;-1.478;2023-04-10T06:49:51;99536.72;;;15.61;100.00
24666;BME280;29726;53.532;-1.478;2023-04-10T06:52:35;99545.91;;;15.67;100.00
24666;BME280;29726;53.532;-1.478;2023-04-10T06:55:19;99528.81;;;15.59;100.00
24666;BME280;29726;53.532;-1.478;2023-04-10T06:58:03;99528.28;;;15.61;100.00
24666;BME280;29726;53.532;-1.478;2023-04-10T07:00:47;99513.94;;;15.64;100.00
24666;BME280;29726;53.532;-1.478;2023-04-10T07:03:31;99509.84;;;15.65;100.00
24666;BME280;29726;53.532;-1.478;2023-04-10T07:06:15;99502.13;;;15.66;100.00
24666;BME280;29726;53.532;-1.478;2023-04-10T07:08:59;99499.59;;;15.68;100.00
24666;BME280;29726;53.532;-1.478;2023-04-10T07:11:43;99485.25;;;15.66;100.00
24666;BME280;29726;53.532;-1.478;2023-04-10T07:14:27;99490.59;;;15.69;100.00
24666;BME280;29726;53.532;-1.478;2023-04-10T07:17:11;99476.81;;;15.66;100.00
24666;BME280;29726;53.532;-1.478;2023-04-10T07:19:55;99483.16;;;15.72;100.00
24666;BME280;29726;53.532;-1.478;2023-04-10T07:22:39;99478.28;;;15.72;100.00
24666;BME280;29726;53.532;-1.478;2023-04-10T07:25:23;99467.59;;;15.71;100.00
24666;BME280;29726;53.532;-1.478;2023-04-10T07:28:07;99469.09;;;15.72;100.00
24666;BME280;29726;53.532;-1.478;2023-04-10T07:30:51;99466.75;;;15.76;100.00
24666;BME280;29726;53.532;-1.478;2023-04-10T07:33:35;99466.97;;;15.78;100.00
24666;BME280;29726;53.532;-1.478;2023-04-10T07:36:19;99464.78;;;15.71;100.00
24666;BME280;29726;53.532;-1.478;2023-04-10T07:39:03;99472.63;;;15.78;100.00
24666;BME280;29726;53.532;-1.478;2023-04-10T07:41:47;99473.91;;;15.77;100.00
24666;BME280;29726;53.532;-1.478;2023-04-10T07:44:31;99471.09;;;15.77;100.00
24666;BME280;29726;53.532;-1.478;2023-04-10T07:47:15;99451.22;;;15.69;100.00
24666;BME280;29726;53.532;-1.478;2023-04-10T07:49:59;99453.16;;;15.80;100.00
24666;BME280;29726;53.532;-1.478;2023-04-10T07:52:43;99448.28;;;15.80;100.00
24666;BME280;29726;53.532;-1.478;2023-04-10T07:55:27;99433.44;;;15.80;100.00
24666;BME280;29726;53.532;-1.478;2023-04-10T07:58:11;99427.31;;;15.81;100.00
24666;BME280;29726;53.532;-1.478;2023-04-10T08:00:55;99425.00;;;15.80;100.00
24666;BME280;29726;53.532;-1.478;2023-04-10T08:03:44;99426.69;;;15.88;100.00
24666;BME280;29726;53.532;-1.478;2023-04-10T08:06:28;99414.44;;;15.86;100.00
24666;BME280;29726;53.532;-1.478;2023-04-10T08:09:12;99407.75;;;15.89;100.00
24666;BME280;29726;53.532;-1.478;2023-04-10T08:12:01;99398.56;;;15.88;100.00
24666;BME280;29726;53.532;-1.478;2023-04-10T08:14:46;99395.34;;;15.97;100.00
24666;BME280;29726;53.532;-1.478;2023-04-10T08:17:34;99383.13;;;15.95;100.00
24666;BME280;29726;53.532;-1.478;2023-04-10T08:20:18;99374.69;;;15.95;100.00
24666;BME280;29726;53.532;-1.478;2023-04-10T08:23:02;99379.47;;;16.00;100.00
24666;BME280;29726;53.532;-1.478;2023-04-10T08:25:47;99384.56;;;16.01;100.00
24666;BME280;29726;53.532;-1.478;2023-04-10T08:28:31;99369.66;;;16.06;100.00
24666;BME280;29726;53.532;-1.478;2023-04-10T08:31:17;99364.78;;;16.07;100.00
24666;BME280;29726;53.532;-1.478;2023-04-10T08:34:01;99374.38;;;16.17;100.00
24666;BME280;29726;53.532;-1.478;2023-04-10T08:36:46;99368.97;;;16.19;100.00
24666;BME280;29726;53.532;-1.478;2023-04-10T08:39:33;99368.66;;;16.22;100.00
24666;BME280;29726;53.532;-1.478;2023-04-10T08:42:17;99371.16;;;16.26;100.00
24666;BME280;29726;53.532;-1.478;2023-04-10T08:45:02;99364.41;;;16.34;100.00
24666;BME280;29726;53.532;-1.478;2023-04-10T08:47:49;99373.53;;;16.40;100.00
24666;BME280;29726;53.532;-1.478;2023-04-10T08:50:40;99378.66;;;16.42;100.00
24666;BME280;29726;53.532;-1.478;2023-04-10T08:53:30;99395.78;;;16.44;100.00
24666;BME280;29726;53.532;-1.478;2023-04-10T08:56:16;99387.38;;;16.57;100.00
24666;BME280;29726;53.532;-1.478;2023-04-10T08:59:01;99391.09;;;16.65;100.00
24666;BME280;29726;53.532;-1.478;2023-04-10T09:01:47;99379.50;;;16.68;100.00
24666;BME280;29726;53.532;-1.478;2023-04-10T09:04:31;99370.53;;;16.70;100.00
24666;BME280;29726;53.532;-1.478;2023-04-10T09:07:16;99386.41;;;16.85;100.00
24666;BME280;29726;53.532;-1.478;2023-04-10T09:10:01;99379.91;;;16.90;100.00
24666;BME280;29726;53.532;-1.478;2023-04-10T09:12:46;99367.78;;;16.95;100.00
24666;BME280;29726;53.532;-1.478;2023-04-10T09:15:59;99358.38;;;17.06;100.00
24666;BME280;29726;53.532;-1.478;2023-04-10T09:18:48;99356.97;;;17.12;100.00
24666;BME280;29726;53.532;-1.478;2023-04-10T09:21:33;99345.06;;;17.19;100.00
24666;BME280;29726;53.532;-1.478;2023-04-10T09:24:17;99328.34;;;17.21;100.00
24666;BME280;29726;53.532;-1.478;2023-04-10T09:27:01;99324.25;;;17.35;100.00
24666;BME280;29726;53.532;-1.478;2023-04-10T09:29:46;99310.06;;;17.41;100.00
24666;BME280;29726;53.532;-1.478;2023-04-10T09:32:44;99312.53;;;17.57;100.00
24666;BME280;29726;53.532;-1.478;2023-04-10T09:35:36;99291.47;;;17.58;100.00
24666;BME280;29726;53.532;-1.478;2023-04-10T09:38:21;99303.41;;;17.77;100.00
24666;BME280;29726;53.532;-1.478;2023-04-10T09:41:07;99287.50;;;17.87;100.00
24666;BME280;29726;53.532;-1.478;2023-04-10T09:44:08;99292.69;;;17.96;100.00
24666;BME280;29726;53.532;-1.478;2023-04-10T09:46:52;99268.34;;;18.06;100.00
24666;BME280;29726;53.532;-1.478;2023-04-10T09:49:44;99261.88;;;18.19;100.00
24666;BME280;29726;53.532;-1.478;2023-04-10T09:52:32;99266.53;;;18.29;100.00
24666;BME280;29726;53.532;-1.478;2023-04-10T09:55:16;99236.28;;;18.37;100.00
24666;BME280;29726;53.532;-1.478;2023-04-10T09:58:00;99242.75;;;18.45;100.00
24666;BME280;29726;53.532;-1.478;2023-04-10T10:00:48;99236.47;;;18.59;100.00
24666;BME280;29726;53.532;-1.478;2023-04-10T10:03:32;99228.25;;;18.69;100.00
24666;BME280;29726;53.532;-1.478;2023-04-10T10:06:16;99218.09;;;18.73;100.00
24666;BME280;29726;53.532;-1.478;2023-04-10T10:09:03;99220.47;;;18.90;100.00
24666;BME280;29726;53.532;-1.478;2023-04-10T10:11:48;99201.09;;;18.94;100.00
24666;BME280;29726;53.532;-1.478;2023-04-10T10:17:58;99211.28;;;19.25;100.00
24666;BME280;29726;53.532;-1.478;2023-04-10T10:20:44;99193.97;;;19.36;100.00
24666;BME280;29726;53.532;-1.478;2023-04-10T10:23:31;99210.63;;;19.47;100.00
24666;BME280;29726;53.532;-1.478;2023-04-10T10:26:16;99196.31;;;19.52;100.00
24666;BME280;29726;53.532;-1.478;2023-04-10T10:29:06;99194.84;;;19.66;100.00
24666;BME280;29726;53.532;-1.478;2023-04-10T10:31:53;99205.84;;;19.77;100.00
24666;BME280;29726;53.532;-1.478;2023-04-10T10:34:38;99205.09;;;19.84;100.00
24666;BME280;29726;53.532;-1.478;2023-04-10T10:37:22;99230.03;;;19.93;100.00
24666;BME280;29726;53.532;-1.478;2023-04-10T10:40:32;99227.63;;;19.97;100.00
24666;BME280;29726;53.532;-1.478;2023-04-10T10:43:26;99234.81;;;20.06;100.00
24666;BME280;29726;53.532;-1.478;2023-04-10T10:46:33;99247.31;;;20.10;100.00
24666;BME280;29726;53.532;-1.478;2023-04-10T10:49:18;99235.03;;;20.08;100.00
24666;BME280;29726;53.532;-1.478;2023-04-10T10:52:02;99238.97;;;20.05;100.00
24666;BME280;29726;53.532;-1.478;2023-04-10T10:54:46;99243.31;;;20.06;100.00
24666;BME280;29726;53.532;-1.478;2023-04-10T10:57:44;99224.41;;;20.01;100.00
24666;BME280;29726;53.532;-1.478;2023-04-10T11:03:35;99211.94;;;19.96;100.00
24666;BME280;29726;53.532;-1.478;2023-04-10T11:06:21;99216.47;;;19.92;100.00
24666;BME280;29726;53.532;-1.478;2023-04-10T11:09:45;99213.44;;;19.90;100.00
24666;BME280;29726;53.532;-1.478;2023-04-10T11:15:56;99212.81;;;19.84;100.00
24666;BME280;29726;53.532;-1.478;2023-04-10T11:21:30;99193.16;;;19.71;100.00
24666;BME280;29726;53.532;-1.478;2023-04-10T11:24:14;99196.34;;;19.67;100.00
24666;BME280;29726;53.532;-1.478;2023-04-10T11:26:58;99211.28;;;19.68;100.00
24666;BME280;29726;53.532;-1.478;2023-04-10T11:29:42;99212.22;;;19.63;100.00
24666;BME280;29726;53.532;-1.478;2023-04-10T11:32:26;99163.06;;;19.38;100.00
24666;BME280;29726;53.532;-1.478;2023-04-10T11:35:10;99150.59;;;19.33;100.00
24666;BME280;29726;53.532;-1.478;2023-04-10T11:38:08;99163.84;;;19.46;100.00
24666;BME280;29726;53.532;-1.478;2023-04-10T11:40:57;99166.31;;;19.49;100.00
24666;BME280;29726;53.532;-1.478;2023-04-10T11:43:41;99149.50;;;19.44;100.00
24666;BME280;29726;53.532;-1.478;2023-04-10T11:46:26;99143.06;;;19.43;100.00
24666;BME280;29726;53.532;-1.478;2023-04-10T11:49:10;99123.78;;;19.34;100.00
24666;BME280;29726;53.532;-1.478;2023-04-10T11:51:54;99149.06;;;19.32;100.00
24666;BME280;29726;53.532;-1.478;2023-04-10T11:54:47;99145.47;;;19.32;100.00
24666;BME280;29726;53.532;-1.478;2023-04-10T11:57:33;99139.81;;;19.32;100.00
24666;BME280;29726;53.532;-1.478;2023-04-10T12:00:22;99120.53;;;19.23;100.00
24666;BME280;29726;53.532;-1.478;2023-04-10T12:03:07;99119.41;;;19.26;100.00
24666;BME280;29726;53.532;-1.478;2023-04-10T12:05:50;99106.41;;;19.23;100.00
24666;BME280;29726;53.532;-1.478;2023-04-10T12:08:53;99095.44;;;19.19;100.00
24666;BME280;29726;53.532;-1.478;2023-04-10T12:11:37;99081.66;;;19.16;100.00
24666;BME280;29726;53.532;-1.478;2023-04-10T12:14:22;99097.09;;;19.15;100.00
24666;BME280;29726;53.532;-1.478;2023-04-10T12:17:08;99121.28;;;19.16;100.00
24666;BME280;29726;53.532;-1.478;2023-04-10T12:19:53;99117.13;;;19.17;100.00
24666;BME280;29726;53.532;-1.478;2023-04-10T12:22:38;99143.84;;;19.08;100.00
24666;BME280;29726;53.532;-1.478;2023-04-10T12:25:21;99127.63;;;19.09;100.00
24666;BME280;29726;53.532;-1.478;2023-04-10T12:28:06;99123.28;;;19.08;100.00
24666;BME280;29726;53.532;-1.478;2023-04-10T12:30:51;99108.53;;;19.02;100.00
24666;BME280;29726;53.532;-1.478;2023-04-10T12:33:36;99088.72;;;18.94;100.00
24666;BME280;29726;53.532;-1.478;2023-04-10T12:36:21;99080.19;;;18.87;100.00
24666;BME280;29726;53.532;-1.478;2023-04-10T12:39:21;99073.97;;;18.88;100.00
24666;BME280;29726;53.532;-1.478;2023-04-10T12:42:16;99058.34;;;18.87;100.00
24666;BME280;29726;53.532;-1.478;2023-04-10T12:45:02;99059.25;;;18.90;100.00
24666;BME280;29726;53.532;-1.478;2023-04-10T12:47:50;99054.72;;;18.87;100.00
24666;BME280;29726;53.532;-1.478;2023-04-10T12:50:47;99022.84;;;18.79;100.00
24666;BME280;29726;53.532;-1.478;2023-04-10T12:53:30;99034.03;;;18.92;100.00
24666;BME280;29726;53.532;-1.478;2023-04-10T12:56:25;99045.34;;;18.92;100.00
24666;BME280;29726;53.532;-1.478;2023-04-10T12:59:09;99061.19;;;18.95;100.00
24666;BME280;29726;53.532;-1.478;2023-04-10T13:01:53;99070.81;;;18.92;100.00
24666;BME280;29726;53.532;-1.478;2023-04-10T13:04:38;99076.47;;;18.92;100.00
24666;BME280;29726;53.532;-1.478;2023-04-10T13:07:22;99077.00;;;18.90;100.00
24666;BME280;29726;53.532;-1.478;2023-04-10T13:10:07;99072.31;;;18.93;100.00
24666;BME280;29726;53.532;-1.478;2023-04-10T13:12:51;99083.22;;;18.89;100.00
24666;BME280;29726;53.532;-1.478;2023-04-10T13:15:35;99094.53;;;18.89;100.00
24666;BME280;29726;53.532;-1.478;2023-04-10T13:18:19;99081.31;;;18.84;100.00
24666;BME280;29726;53.532;-1.478;2023-04-10T13:21:03;99082.81;;;18.85;100.00
24666;BME280;29726;53.532;-1.478;2023-04-10T13:23:48;99100.34;;;18.83;100.00
24666;BME280;29726;53.532;-1.478;2023-04-10T13:26:32;99088.81;;;18.74;100.00
24666;BME280;29726;53.532;-1.478;2023-04-10T13:29:16;99100.91;;;18.82;100.00
24666;BME280;29726;53.532;-1.478;2023-04-10T13:32:00;99124.66;;;18.79;100.00
24666;BME280;29726;53.532;-1.478;2023-04-10T13:34:44;99141.81;;;18.81;100.00
24666;BME280;29726;53.532;-1.478;2023-04-10T13:37:28;99127.81;;;18.75;100.00
24666;BME280;29726;53.532;-1.478;2023-04-10T13:40:12;99137.47;;;18.80;100.00
24666;BME280;29726;53.532;-1.478;2023-04-10T13:42:56;99141.25;;;18.82;100.00
24666;BME280;29726;53.532;-1.478;2023-04-10T13:45:40;99121.97;;;18.73;100.00
24666;BME280;29726;53.532;-1.478;2023-04-10T13:48:24;99137.47;;;18.80;100.00
24666;BME280;29726;53.532;-1.478;2023-04-10T13:51:08;99146.16;;;18.82;100.00
24666;BME280;29726;53.532;-1.478;2023-04-10T13:53:52;99156.72;;;18.81;100.00
24666;BME280;29726;53.532;-1.478;2023-04-10T13:56:36;99134.03;;;18.74;100.00
24666;BME280;29726;53.532;-1.478;2023-04-10T13:59:20;99134.63;;;18.80;100.00
24666;BME280;29726;53.532;-1.478;2023-04-10T14:02:04;99137.84;;;18.84;100.00
24666;BME280;29726;53.532;-1.478;2023-04-10T14:04:48;99119.78;;;18.87;100.00
24666;BME280;29726;53.532;-1.478;2023-04-10T14:07:34;99100.34;;;18.83;100.00
24666;BME280;29726;53.532;-1.478;2023-04-10T14:10:18;99107.34;;;18.90;100.00
24666;BME280;29726;53.532;-1.478;2023-04-10T14:13:03;99112.81;;;18.88;100.00
24666;BME280;29726;53.532;-1.478;2023-04-10T14:15:47;99088.41;;;18.70;100.00
24666;BME280;29726;53.532;-1.478;2023-04-10T14:18:31;99130.38;;;18.94;100.00
24666;BME280;29726;53.532;-1.478;2023-04-10T14:21:15;99126.03;;;18.93;100.00
24666;BME280;29726;53.532;-1.478;2023-04-10T14:23:59;99117.00;;;18.94;100.00
24666;BME280;29726;53.532;-1.478;2023-04-10T14:26:42;99114.50;;;18.91;100.00
24666;BME280;29726;53.532;-1.478;2023-04-10T14:29:27;99126.25;;;18.95;100.00
24666;BME280;29726;53.532;-1.478;2023-04-10T14:32:11;99129.47;;;18.99;100.00
24666;BME280;29726;53.532;-1.478;2023-04-10T14:34:55;99086.91;;;18.76;100.00
24666;BME280;29726;53.532;-1.478;2023-04-10T14:37:39;99112.88;;;19.03;100.00
24666;BME280;29726;53.532;-1.478;2023-04-10T14:40:24;99127.03;;;19.03;100.00